Time;durP1;ratioP1;P1;durP2;ratioP2;P2;SDS_P1;SDS_P2;PMS_P1;PMS_P2;Temp;Humidity;BMP_temperature;BMP_pressure;BME280_temperature;BME280_humidity;BME280_pressure;Samples;Min_cycle;Max_cycle;Signal;HPM_P1;HPM_P2
2021/01/01 00:02:09;;;;;;;2.23;1.17;;;;;;;;;;5052356;28;20032;-59
2021/01/01 00:04:36;;;;;;;5.40;1.30;;;;;;;;;;5052489;28;20032;-58
2021/01/01 00:07:03;;;;;;;13.13;1.60;;;;;;;;;;5052520;28;20053;-58
2021/01/01 00:09:29;;;;;;;3.93;1.20;;;;;;;;;;5052389;28;20025;-58
2021/01/01 00:11:56;;;;;;;4.13;1.37;;;;;;;;;;5052439;28;20044;-58
2021/01/01 00:14:23;;;;;;;2.83;1.57;;;;;;;;;;5052357;28;20025;-58
2021/01/01 00:16:50;;;;;;;2.73;1.40;;;;;;;;;;5052844;28;20022;-58
2021/01/01 00:19:16;;;;;;;8.27;1.90;;;;;;;;;;5052470;28;20050;-58
2021/01/01 00:21:43;;;;;;;13.27;1.87;;;;;;;;;;5052391;28;20028;-58
2021/01/01 00:24:10;;;;;;;9.53;1.50;;;;;;;;;;5054906;28;20029;-58
2021/01/01 00:26:37;;;;;;;3.10;1.60;;;;;;;;;;5056698;28;20028;-58
2021/01/01 00:29:04;;;;;;;6.17;1.63;;;;;;;;;;5056429;28;20031;-58
2021/01/01 00:31:31;;;;;;;2.90;1.10;;;;;;;;;;5055664;28;20080;-58
2021/01/01 00:33:58;;;;;;;2.60;1.40;;;;;;;;;;5056397;28;20025;-58
2021/01/01 00:36:25;;;;;;;6.23;1.40;;;;;;;;;;5056370;28;20029;-59
2021/01/01 00:38:53;;;;;;;3.93;1.47;;;;;;;;;;5056634;28;20067;-58
2021/01/01 00:41:29;;;;;;;3.10;1.20;;;;;;;;;;5056253;28;20056;-58
2021/01/01 00:43:56;;;;;;;5.27;1.40;;;;;;;;;;5056387;28;20021;-58
2021/01/01 00:46:24;;;;;;;5.23;1.33;;;;;;;;;;5056289;28;20029;-58
2021/01/01 00:48:51;;;;;;;6.53;1.30;;;;;;;;;;5056221;28;20060;-58
2021/01/01 00:51:31;;;;;;;2.63;1.27;;;;;;;;;;5056130;28;20029;-58
2021/01/01 00:53:58;;;;;;;3.80;1.47;;;;;;;;;;5056008;28;20021;-58
2021/01/01 00:56:26;;;;;;;4.37;1.30;;;;;;;;;;5055991;28;20028;-58
2021/01/01 00:58:53;;;;;;;2.77;1.50;;;;;;;;;;5055979;28;20116;-58
2021/01/01 01:01:23;;;;;;;5.90;1.97;;;;;;;;;;5055923;28;20036;-58
2021/01/01 01:03:50;;;;;;;7.07;1.90;;;;;;;;;;5056012;28;20092;-58
2021/01/01 01:06:17;;;;;;;5.40;2.10;;;;;;;;;;5055795;28;20025;-58
2021/01/01 01:08:44;;;;;;;4.23;1.63;;;;;;;;;;5055792;28;20036;-58
2021/01/01 01:11:11;;;;;;;5.10;1.93;;;;;;;;;;5055678;28;20029;-58
2021/01/01 01:13:38;;;;;;;7.50;2.00;;;;;;;;;;5055683;28;20029;-58
2021/01/01 01:16:05;;;;;;;3.10;1.70;;;;;;;;;;5055770;28;20032;-58
2021/01/01 01:18:32;;;;;;;4.37;1.53;;;;;;;;;;5055676;28;20056;-58
2021/01/01 01:20:59;;;;;;;4.83;1.63;;;;;;;;;;5055672;28;20523;-58
2021/01/01 01:23:26;;;;;;;8.93;1.60;;;;;;;;;;5055587;28;20397;-58
2021/01/01 01:25:53;;;;;;;3.07;1.07;;;;;;;;;;5055604;28;20092;-58
2021/01/01 01:28:19;;;;;;;3.80;1.63;;;;;;;;;;5055282;28;20025;-58
2021/01/01 01:30:46;;;;;;;4.80;1.60;;;;;;;;;;5054497;28;20049;-58
2021/01/01 01:33:13;;;;;;;7.03;1.73;;;;;;;;;;5055414;28;20025;-58
2021/01/01 01:35:40;;;;;;;10.40;2.87;;;;;;;;;;5054895;28;20082;-58
2021/01/01 01:38:07;;;;;;;7.70;2.97;;;;;;;;;;5055326;28;20021;-58
2021/01/01 01:40:34;;;;;;;6.43;2.50;;;;;;;;;;5055097;28;20025;-58
2021/01/01 01:43:00;;;;;;;10.40;3.80;;;;;;;;;;5055157;28;20104;-58
2021/01/01 01:45:27;;;;;;;14.57;3.13;;;;;;;;;;5055090;28;20017;-58
2021/01/01 01:47:54;;;;;;;7.43;3.73;;;;;;;;;;5055077;28;20025;-58
2021/01/01 01:50:21;;;;;;;13.47;4.13;;;;;;;;;;5054951;28;20017;-58
2021/01/01 01:52:48;;;;;;;7.90;4.80;;;;;;;;;;5054900;28;20472;-58
2021/01/01 01:55:18;;;;;;;8.27;4.30;;;;;;;;;;5054916;28;20085;-58
2021/01/01 01:57:46;;;;;;;15.23;6.50;;;;;;;;;;5054973;28;20107;-58
2021/01/01 02:02:56;;;;;;;9.70;3.50;;;;;;;;;;5054882;28;20029;-58
2021/01/01 02:05:22;;;;;;;16.00;4.73;;;;;;;;;;5054835;28;20029;-58
2021/01/01 02:07:49;;;;;;;12.93;3.60;;;;;;;;;;5036902;28;20478;-58
2021/01/01 02:10:16;;;;;;;4.37;2.53;;;;;;;;;;5054586;28;20091;-58
2021/01/01 02:12:43;;;;;;;7.23;3.30;;;;;;;;;;5054552;28;20041;-58
2021/01/01 02:15:10;;;;;;;7.53;3.10;;;;;;;;;;5054629;28;20390;-58
2021/01/01 02:17:37;;;;;;;12.77;4.90;;;;;;;;;;5054550;28;20025;-58
2021/01/01 02:20:07;;;;;;;9.20;4.37;;;;;;;;;;5054499;28;20021;-58
2021/01/01 02:22:36;;;;;;;8.63;4.47;;;;;;;;;;5054441;28;20032;-58
2021/01/01 02:25:05;;;;;;;9.03;3.40;;;;;;;;;;5054323;28;20028;-57
2021/01/01 02:27:31;;;;;;;9.63;3.47;;;;;;;;;;5054335;28;20029;-58
2021/01/01 02:29:58;;;;;;;12.13;3.80;;;;;;;;;;5053372;28;20091;-58
2021/01/01 02:32:25;;;;;;;7.23;3.63;;;;;;;;;;5054140;28;20040;-57
2021/01/01 02:34:52;;;;;;;9.23;4.13;;;;;;;;;;5054200;28;20025;-57
2021/01/01 02:37:19;;;;;;;14.17;3.97;;;;;;;;;;5054170;28;20094;-58
2021/01/01 02:39:45;;;;;;;6.93;3.00;;;;;;;;;;5053936;28;20025;-57
2021/01/01 02:42:15;;;;;;;16.07;3.77;;;;;;;;;;5053931;28;20048;-58
2021/01/01 02:44:42;;;;;;;5.07;2.70;;;;;;;;;;5054024;28;20029;-57
2021/01/01 02:47:09;;;;;;;9.07;3.53;;;;;;;;;;5053082;28;20471;-58
2021/01/01 02:49:36;;;;;;;5.97;2.60;;;;;;;;;;5053782;28;20082;-57
2021/01/01 02:52:03;;;;;;;12.53;3.50;;;;;;;;;;5053781;28;20044;-57
2021/01/01 02:54:30;;;;;;;13.77;3.77;;;;;;;;;;5053807;28;20024;-57
2021/01/01 02:56:56;;;;;;;14.60;4.93;;;;;;;;;;5053742;28;20024;-57
2021/01/01 02:59:23;;;;;;;12.37;4.63;;;;;;;;;;5053887;28;20017;-58
2021/01/01 03:01:52;;;;;;;11.47;3.43;;;;;;;;;;5053606;28;20041;-57
2021/01/01 03:04:18;;;;;;;9.00;3.83;;;;;;;;;;5053564;28;20069;-57
2021/01/01 03:06:45;;;;;;;14.23;5.10;;;;;;;;;;5053614;28;20086;-57
2021/01/01 03:09:12;;;;;;;13.03;5.00;;;;;;;;;;5053435;28;20021;-57
2021/01/01 03:11:39;;;;;;;8.43;4.80;;;;;;;;;;5053392;28;20029;-57
2021/01/01 03:14:05;;;;;;;11.27;4.57;;;;;;;;;;5053467;28;20049;-57
2021/01/01 03:16:32;;;;;;;8.27;4.13;;;;;;;;;;5053343;28;20025;-57
2021/01/01 03:18:59;;;;;;;12.43;5.10;;;;;;;;;;5053294;28;20411;-57
2021/01/01 03:21:26;;;;;;;8.17;4.90;;;;;;;;;;5053208;28;20446;-57
2021/01/01 03:23:52;;;;;;;11.57;4.93;;;;;;;;;;5053316;28;20025;-57
2021/01/01 03:26:19;;;;;;;10.40;5.23;;;;;;;;;;5053274;28;20025;-57
2021/01/01 03:28:46;;;;;;;8.43;4.20;;;;;;;;;;5053074;28;20021;-57
2021/01/01 03:31:13;;;;;;;10.10;4.17;;;;;;;;;;5052151;28;20044;-57
2021/01/01 03:33:39;;;;;;;11.43;5.10;;;;;;;;;;5053315;28;20032;-57
2021/01/01 03:36:06;;;;;;;16.17;5.37;;;;;;;;;;5053064;28;20021;-57
2021/01/01 03:38:33;;;;;;;12.13;5.10;;;;;;;;;;5052933;28;20787;-57
2021/01/01 03:41:00;;;;;;;11.57;5.13;;;;;;;;;;5052935;28;20464;-57
2021/01/01 03:43:27;;;;;;;11.23;5.50;;;;;;;;;;5053482;28;20288;-57
2021/01/01 03:45:54;;;;;;;12.37;5.33;;;;;;;;;;5052904;28;20250;-57
2021/01/01 03:48:21;;;;;;;11.97;6.77;;;;;;;;;;5052870;28;20254;-57
2021/01/01 03:50:48;;;;;;;12.23;5.33;;;;;;;;;;5052878;28;20768;-57
2021/01/01 03:53:14;;;;;;;8.83;4.77;;;;;;;;;;5052819;28;20262;-57
2021/01/01 03:55:41;;;;;;;5.93;3.27;;;;;;;;;;5052696;28;20331;-57
2021/01/01 03:58:08;;;;;;;9.23;4.30;;;;;;;;;;5052640;28;20258;-57
2021/01/01 04:00:35;;;;;;;12.07;4.00;;;;;;;;;;5052726;28;20250;-57
2021/01/01 04:03:01;;;;;;;8.27;3.77;;;;;;;;;;5052796;28;20246;-57
2021/01/01 04:05:28;;;;;;;5.97;3.43;;;;;;;;;;5052671;28;20290;-57
2021/01/01 04:07:55;;;;;;;8.67;4.33;;;;;;;;;;5052744;28;20250;-57
2021/01/01 04:10:22;;;;;;;9.60;4.27;;;;;;;;;;5052625;28;20640;-57
2021/01/01 04:12:49;;;;;;;13.27;4.90;;;;;;;;;;5052671;28;20282;-57
2021/01/01 04:15:15;;;;;;;10.87;4.30;;;;;;;;;;5052594;28;20261;-57
2021/01/01 04:17:42;;;;;;;13.13;4.13;;;;;;;;;;5052645;28;20262;-57
2021/01/01 04:20:09;;;;;;;8.63;3.97;;;;;;;;;;5052485;28;20300;-57
2021/01/01 04:22:36;;;;;;;7.40;3.97;;;;;;;;;;5052654;28;20306;-57
2021/01/01 04:25:03;;;;;;;42.30;5.97;;;;;;;;;;5052484;28;20286;-57
2021/01/01 04:27:29;;;;;;;11.33;4.77;;;;;;;;;;5052435;28;20270;-57
2021/01/01 04:29:56;;;;;;;9.57;4.83;;;;;;;;;;5051431;28;20752;-57
2021/01/01 04:32:23;;;;;;;7.13;4.40;;;;;;;;;;5052386;28;20290;-57
2021/01/01 04:34:50;;;;;;;10.17;4.23;;;;;;;;;;5052385;28;20260;-57
2021/01/01 04:37:16;;;;;;;10.53;4.63;;;;;;;;;;5052372;28;20282;-57
2021/01/01 04:39:43;;;;;;;10.80;4.40;;;;;;;;;;5034449;28;20265;-57
2021/01/01 04:42:10;;;;;;;6.80;3.97;;;;;;;;;;5052643;28;20277;-57
2021/01/01 04:44:37;;;;;;;8.40;3.90;;;;;;;;;;5052307;28;20254;-57
2021/01/01 04:47:05;;;;;;;13.70;4.40;;;;;;;;;;5052288;28;20699;-57
2021/01/01 04:49:32;;;;;;;8.27;3.60;;;;;;;;;;5052212;28;20669;-57
2021/01/01 04:52:01;;;;;;;6.20;3.33;;;;;;;;;;5052157;28;20282;-57
2021/01/01 04:54:32;;;;;;;6.53;3.87;;;;;;;;;;5052310;28;20258;-57
2021/01/01 04:56:59;;;;;;;11.73;4.73;;;;;;;;;;5052534;28;20261;-57
2021/01/01 04:59:25;;;;;;;5.90;3.30;;;;;;;;;;5052048;28;20264;-57
2021/01/01 05:01:52;;;;;;;6.13;3.50;;;;;;;;;;5052172;28;20738;-57
2021/01/01 05:04:19;;;;;;;9.33;3.90;;;;;;;;;;5052170;28;20258;-57
2021/01/01 05:06:46;;;;;;;7.97;3.90;;;;;;;;;;5052043;28;20627;-57
2021/01/01 05:09:13;;;;;;;6.40;3.70;;;;;;;;;;5052934;28;20273;-57
2021/01/01 05:11:40;;;;;;;6.23;3.37;;;;;;;;;;5055652;28;20286;-57
2021/01/01 05:14:08;;;;;;;6.13;3.53;;;;;;;;;;5055750;28;20277;-57
2021/01/01 05:16:35;;;;;;;5.23;2.63;;;;;;;;;;5055626;28;20269;-57
2021/01/01 05:19:10;;;;;;;8.00;2.90;;;;;;;;;;5055644;28;20268;-57
2021/01/01 05:21:36;;;;;;;5.70;2.90;;;;;;;;;;5055867;28;20246;-57
2021/01/01 05:24:04;;;;;;;6.10;2.70;;;;;;;;;;5055569;28;20261;-57
2021/01/01 05:26:31;;;;;;;7.43;3.70;;;;;;;;;;5055429;28;20337;-57
2021/01/01 05:28:58;;;;;;;7.73;4.00;;;;;;;;;;5055288;28;20337;-57
2021/01/01 05:31:25;;;;;;;7.70;3.80;;;;;;;;;;5054426;28;20367;-57
2021/01/01 05:33:55;;;;;;;7.00;3.40;;;;;;;;;;5055388;28;20341;-57
2021/01/01 05:36:32;;;;;;;9.93;3.17;;;;;;;;;;5055230;28;20285;-56
2021/01/01 05:39:03;;;;;;;9.70;3.93;;;;;;;;;;5055296;28;20261;-57
2021/01/01 05:41:33;;;;;;;8.03;3.87;;;;;;;;;;5055247;28;20307;-57
2021/01/01 05:44:26;;;;;;;9.80;4.57;;;;;;;;;;5055103;28;20246;-57
2021/01/01 05:46:55;;;;;;;8.77;4.60;;;;;;;;;;5052490;28;20269;-57
2021/01/01 05:49:23;;;;;;;11.03;5.20;;;;;;;;;;5055006;28;20611;-57
2021/01/01 05:52:10;;;;;;;12.83;6.20;;;;;;;;;;5054916;28;20286;-57
2021/01/01 05:54:37;;;;;;;14.73;6.27;;;;;;;;;;5044751;28;20732;-57
2021/01/01 05:57:05;;;;;;;16.47;6.27;;;;;;;;;;5054826;28;20266;-57
2021/01/01 05:59:35;;;;;;;12.30;6.00;;;;;;;;;;5054844;28;20250;-57
2021/01/01 06:02:03;;;;;;;13.47;5.70;;;;;;;;;;5036997;28;20298;-57
2021/01/01 06:04:30;;;;;;;12.27;5.27;;;;;;;;;;5054755;28;20238;-57
2021/01/01 06:06:59;;;;;;;10.63;6.07;;;;;;;;;;5054798;28;20254;-57
2021/01/01 06:09:28;;;;;;;11.30;6.37;;;;;;;;;;5036675;28;20752;-57
2021/01/01 06:12:03;;;;;;;17.97;6.93;;;;;;;;;;5054534;28;20636;-57
2021/01/01 06:14:31;;;;;;;10.27;6.03;;;;;;;;;;5054533;28;20250;-57
2021/01/01 06:17:10;;;;;;;12.03;5.27;;;;;;;;;;5054620;28;20327;-56
2021/01/01 06:19:46;;;;;;;11.07;6.30;;;;;;;;;;5054422;28;20679;-57
2021/01/01 06:22:14;;;;;;;11.83;5.50;;;;;;;;;;5053405;28;20258;-57
2021/01/01 06:25:06;;;;;;;11.97;6.47;;;;;;;;;;5054325;28;20250;-56
2021/01/01 06:27:33;;;;;;;14.77;6.40;;;;;;;;;;5051704;28;20262;-57
2021/01/01 06:30:05;;;;;;;12.87;6.07;;;;;;;;;;5053400;28;20251;-57
2021/01/01 06:32:34;;;;;;;29.80;12.83;;;;;;;;;;5054263;28;20305;-57
2021/01/01 06:35:14;;;;;;;16.20;7.47;;;;;;;;;;5054178;28;20315;-56
2021/01/01 06:37:42;;;;;;;15.23;7.43;;;;;;;;;;5054141;28;20246;-57
2021/01/01 06:40:21;;;;;;;13.50;6.83;;;;;;;;;;5054388;28;20262;-57
2021/01/01 06:43:04;;;;;;;14.23;7.03;;;;;;;;;;5053981;28;20246;-56
2021/01/01 06:45:39;;;;;;;13.57;6.27;;;;;;;;;;5054025;28;20341;-56
2021/01/01 06:48:24;;;;;;;12.73;5.90;;;;;;;;;;5053845;28;20640;-56
2021/01/01 06:50:52;;;;;;;16.20;7.80;;;;;;;;;;5054053;28;20054;-57
2021/01/01 06:53:19;;;;;;;8.27;4.70;;;;;;;;;;5053963;28;20103;-56
2021/01/01 06:55:47;;;;;;;11.67;6.77;;;;;;;;;;5053894;28;20752;-56
2021/01/01 06:58:15;;;;;;;11.73;5.83;;;;;;;;;;5053719;28;20253;-56
2021/01/01 07:00:48;;;;;;;15.43;5.20;;;;;;;;;;5053658;28;20258;-56
2021/01/01 07:03:30;;;;;;;10.73;4.90;;;;;;;;;;5053664;28;20254;-56
2021/01/01 07:05:58;;;;;;;15.07;5.90;;;;;;;;;;5053538;28;20242;-56
2021/01/01 07:08:43;;;;;;;11.87;6.23;;;;;;;;;;5053433;28;20257;-56
2021/01/01 07:11:19;;;;;;;7.22;3.90;;;;;;;;;;5053469;28;20265;-56
2021/01/01 07:13:46;;;;;;;13.33;5.77;;;;;;;;;;5053460;28;20388;-57
2021/01/01 07:16:14;;;;;;;13.27;6.43;;;;;;;;;;5053375;28;20604;-56
2021/01/01 07:18:41;;;;;;;15.33;7.17;;;;;;;;;;5053275;28;20261;-56
2021/01/01 07:21:15;;;;;;;14.20;7.07;;;;;;;;;;5053303;28;20246;-56
2021/01/01 07:23:42;;;;;;;16.37;8.10;;;;;;;;;;5053231;28;20289;-56
2021/01/01 07:26:10;;;;;;;15.23;6.17;;;;;;;;;;5053240;28;20265;-56
2021/01/01 07:28:39;;;;;;;12.20;6.10;;;;;;;;;;5053065;28;20308;-56
2021/01/01 07:31:06;;;;;;;10.90;5.33;;;;;;;;;;5052228;28;20298;-57
2021/01/01 07:33:33;;;;;;;9.17;5.43;;;;;;;;;;5052844;28;20285;-56
2021/01/01 07:36:01;;;;;;;10.23;4.50;;;;;;;;;;5053145;28;20258;-56
2021/01/01 07:38:29;;;;;;;14.90;7.00;;;;;;;;;;5053099;28;20265;-56
2021/01/01 07:40:57;;;;;;;14.83;7.07;;;;;;;;;;5053055;28;20259;-57
2021/01/01 07:43:24;;;;;;;12.17;5.50;;;;;;;;;;5052982;28;20254;-56
2021/01/01 07:45:54;;;;;;;10.10;4.47;;;;;;;;;;5035093;28;20262;-56
2021/01/01 07:48:21;;;;;;;11.83;5.60;;;;;;;;;;5052879;28;20317;-56
2021/01/01 07:50:48;;;;;;;15.40;6.70;;;;;;;;;;5052928;28;20246;-56
2021/01/01 07:53:15;;;;;;;10.77;4.77;;;;;;;;;;5052762;28;20289;-56
2021/01/01 07:55:42;;;;;;;8.70;4.17;;;;;;;;;;5052819;28;20621;-56
2021/01/01 07:58:10;;;;;;;4.80;2.70;;;;;;;;;;5052691;28;20262;-57
2021/01/01 08:00:38;;;;;;;8.73;2.43;;;;;;;;;;5052763;28;20663;-56
2021/01/01 08:03:05;;;;;;;4.53;2.10;;;;;;;;;;5052785;28;20296;-57
2021/01/01 08:05:32;;;;;;;4.80;2.90;;;;;;;;;;5052795;28;20270;-56
2021/01/01 08:08:12;;;;;;;7.27;2.80;;;;;;;;;;5052589;28;20292;-56
2021/01/01 08:10:40;;;;;;;5.30;2.83;;;;;;;;;;5052682;28;20262;-56
2021/01/01 08:13:16;;;;;;;7.87;3.37;;;;;;;;;;5052664;28;20319;-56
2021/01/01 08:15:43;;;;;;;8.80;4.70;;;;;;;;;;5052571;28;20268;-56
2021/01/01 08:18:11;;;;;;;7.90;3.83;;;;;;;;;;5034721;28;20266;-56
2021/01/01 08:20:38;;;;;;;12.87;6.37;;;;;;;;;;5052669;28;20254;-56
2021/01/01 08:23:08;;;;;;;11.13;5.50;;;;;;;;;;5052643;28;20288;-56
2021/01/01 08:25:35;;;;;;;12.63;6.27;;;;;;;;;;5052494;28;20268;-55
2021/01/01 08:28:03;;;;;;;17.17;9.77;;;;;;;;;;5052435;28;20250;-56
2021/01/01 08:30:30;;;;;;;19.37;10.70;;;;;;;;;;5051660;28;20610;-57
2021/01/01 08:32:57;;;;;;;18.20;10.50;;;;;;;;;;5052467;28;20343;-56
2021/01/01 08:35:25;;;;;;;16.47;9.00;;;;;;;;;;5052451;28;20269;-56
2021/01/01 08:37:52;;;;;;;16.23;6.73;;;;;;;;;;5052477;28;20265;-56
2021/01/01 08:40:19;;;;;;;13.80;7.03;;;;;;;;;;5052385;28;20710;-56
2021/01/01 08:42:46;;;;;;;20.23;9.73;;;;;;;;;;5052470;28;20262;-56
2021/01/01 08:45:13;;;;;;;20.57;9.43;;;;;;;;;;5054757;28;20265;-56
2021/01/01 08:47:40;;;;;;;12.50;6.13;;;;;;;;;;5056102;28;20764;-56
2021/01/01 08:50:24;;;;;;;16.50;7.87;;;;;;;;;;5056035;28;20262;-56
2021/01/01 08:52:58;;;;;;;14.20;6.77;;;;;;;;;;5056195;28;20293;-56
2021/01/01 08:55:25;;;;;;;15.57;7.20;;;;;;;;;;5056149;28;20246;-56
2021/01/01 08:58:06;;;;;;;13.07;5.67;;;;;;;;;;5055950;28;20257;-56
2021/01/01 09:00:33;;;;;;;17.03;7.70;;;;;;;;;;5056062;28;20261;-56
2021/01/01 09:03:00;;;;;;;11.03;6.20;;;;;;;;;;5056071;28;20256;-56
2021/01/01 09:05:27;;;;;;;10.20;5.90;;;;;;;;;;5055915;28;20270;-56
2021/01/01 09:08:13;;;;;;;14.23;5.60;;;;;;;;;;5055949;28;20254;-56
2021/01/01 09:10:41;;;;;;;11.07;6.00;;;;;;;;;;5055763;28;20274;-56
2021/01/01 09:13:20;;;;;;;13.40;6.70;;;;;;;;;;5055601;28;20297;-56
2021/01/01 09:15:48;;;;;;;7.27;4.07;;;;;;;;;;5055698;28;20293;-56
2021/01/01 09:18:15;;;;;;;10.37;4.50;;;;;;;;;;5055706;28;20250;-56
2021/01/01 09:20:48;;;;;;;9.53;4.30;;;;;;;;;;5055495;28;20594;-56
2021/01/01 09:23:15;;;;;;;7.30;4.20;;;;;;;;;;5055414;28;20353;-56
2021/01/01 09:25:42;;;;;;;11.57;5.30;;;;;;;;;;5055501;28;20265;-56
2021/01/01 09:28:12;;;;;;;7.90;3.83;;;;;;;;;;5055318;28;20616;-56
2021/01/01 09:30:40;;;;;;;5.50;3.10;;;;;;;;;;5054513;28;20317;-56
2021/01/01 09:33:08;;;;;;;4.87;2.60;;;;;;;;;;5055276;28;20373;-56
2021/01/01 09:35:35;;;;;;;5.20;2.83;;;;;;;;;;5055330;28;20258;-57
2021/01/01 09:38:03;;;;;;;6.77;3.17;;;;;;;;;;5055253;28;20270;-57
2021/01/01 09:40:37;;;;;;;5.60;2.40;;;;;;;;;;5055268;28;20732;-57
2021/01/01 09:43:05;;;;;;;8.57;3.20;;;;;;;;;;5055114;28;20628;-56
2021/01/01 09:45:35;;;;;;;5.13;2.90;;;;;;;;;;5055078;28;20774;-56
2021/01/01 09:48:02;;;;;;;10.27;3.03;;;;;;;;;;5055104;28;20254;-56
2021/01/01 09:50:28;;;;;;;4.95;2.53;;;;;;;;;;5055039;28;20254;-56
2021/01/01 09:52:55;;;;;;;6.17;2.53;;;;;;;;;;5054777;28;20040;-56
2021/01/01 09:55:22;;;;;;;4.87;2.43;;;;;;;;;;5054814;28;20250;-56
2021/01/01 09:57:49;;;;;;;4.50;2.27;;;;;;;;;;5054954;28;20254;-56
2021/01/01 10:00:17;;;;;;;5.13;2.50;;;;;;;;;;5054790;28;20261;-56
2021/01/01 10:02:44;;;;;;;4.87;2.47;;;;;;;;;;5054806;28;20329;-56
2021/01/01 10:05:12;;;;;;;4.53;2.17;;;;;;;;;;5054749;28;20609;-56
2021/01/01 10:07:39;;;;;;;3.50;1.83;;;;;;;;;;5054998;28;20724;-56
2021/01/01 10:10:06;;;;;;;4.20;2.23;;;;;;;;;;5054698;28;20545;-56
2021/01/01 10:12:33;;;;;;;6.10;3.40;;;;;;;;;;5054637;28;20290;-56
2021/01/01 10:15:00;;;;;;;7.27;3.20;;;;;;;;;;5054541;28;20254;-56
2021/01/01 10:17:28;;;;;;;6.33;3.17;;;;;;;;;;5054476;28;20621;-56
2021/01/01 10:19:56;;;;;;;7.60;3.33;;;;;;;;;;5054440;28;20250;-57
2021/01/01 10:22:23;;;;;;;8.45;3.45;;;;;;;;;;5054461;28;20310;-56
2021/01/01 10:24:50;;;;;;;6.68;3.65;;;;;;;;;;5054499;28;20029;-56
2021/01/01 10:27:17;;;;;;;5.88;2.85;;;;;;;;;;5054294;28;20028;-56
2021/01/01 10:29:44;;;;;;;5.67;2.60;;;;;;;;;;5036388;28;20024;-56
2021/01/01 10:32:12;;;;;;;5.78;3.35;;;;;;;;;;5053363;28;20290;-58
2021/01/01 10:34:39;;;;;;;7.17;3.00;;;;;;;;;;5054142;28;20094;-57
2021/01/01 10:37:06;;;;;;;6.75;3.90;;;;;;;;;;5054246;28;20255;-58
2021/01/01 10:39:33;;;;;;;6.57;3.45;;;;;;;;;;5054145;28;20049;-58
2021/01/01 10:42:01;;;;;;;6.05;2.97;;;;;;;;;;5054076;28;20021;-57
2021/01/01 10:44:28;;;;;;;11.50;3.33;;;;;;;;;;5054099;28;20041;-58
2021/01/01 10:46:55;;;;;;;6.40;2.90;;;;;;;;;;5053962;28;20479;-58
2021/01/01 10:49:25;;;;;;;5.80;2.70;;;;;;;;;;5053860;28;20053;-58
2021/01/01 10:51:52;;;;;;;8.10;3.35;;;;;;;;;;5053779;28;20532;-58
2021/01/01 10:54:19;;;;;;;7.72;3.03;;;;;;;;;;5053746;28;20376;-58
2021/01/01 10:56:46;;;;;;;7.90;3.20;;;;;;;;;;5053822;28;20025;-58
2021/01/01 10:59:13;;;;;;;5.20;2.70;;;;;;;;;;5053588;28;20273;-58
2021/01/01 11:01:40;;;;;;;6.60;3.10;;;;;;;;;;5053618;28;20040;-58
2021/01/01 11:04:07;;;;;;;6.68;2.47;;;;;;;;;;5053872;28;20043;-58
2021/01/01 11:06:39;;;;;;;6.45;2.78;;;;;;;;;;5053189;28;20090;-58
2021/01/01 11:09:07;;;;;;;5.60;2.13;;;;;;;;;;5053390;28;20025;-58
2021/01/01 11:11:34;;;;;;;8.45;2.40;;;;;;;;;;5053527;28;20037;-58
2021/01/01 12:23:08;;;;;;;4.93;1.58;;;;;;;;;;5017382;28;20088;-56
2021/01/01 12:25:34;;;;;;;2.88;1.58;;;;;;;;;;5016846;28;20037;-56
2021/01/01 12:28:03;;;;;;;2.75;1.40;;;;;;;;;;5016894;28;20026;-57
2021/01/01 12:30:33;;;;;;;4.35;1.65;;;;;;;;;;5017179;28;20029;-56
2021/01/01 12:33:00;;;;;;;3.47;1.70;;;;;;;;;;5055892;28;20470;-56
2021/01/01 12:35:26;;;;;;;3.65;1.60;;;;;;;;;;5056390;28;20387;-56
2021/01/01 12:38:00;;;;;;;2.75;1.40;;;;;;;;;;5056404;28;20032;-57
2021/01/01 12:40:28;;;;;;;5.00;1.75;;;;;;;;;;5056330;28;20390;-57
2021/01/01 12:42:54;;;;;;;3.22;1.70;;;;;;;;;;5056340;28;20033;-56
2021/01/01 12:45:21;;;;;;;4.05;1.60;;;;;;;;;;5056293;28;20033;-57
2021/01/01 12:47:48;;;;;;;3.22;1.55;;;;;;;;;;5056293;28;20192;-56
2021/01/01 12:50:15;;;;;;;3.47;1.60;;;;;;;;;;5056217;28;20027;-56
2021/01/01 12:52:51;;;;;;;2.00;1.35;;;;;;;;;;5056127;28;20033;-57
2021/01/01 12:55:17;;;;;;;;;;;;;;;;;;5056571;28;20037;-57
2021/01/01 12:57:44;;;;;;;2.50;1.30;;;;;;;;;;5056091;28;19940;-56
2021/01/01 13:00:11;;;;;;;2.15;1.13;;;;;;;;;;5055944;28;20079;-57
2021/01/01 13:02:37;;;;;;;3.15;1.40;;;;;;;;;;5055977;28;20108;-56
2021/01/01 13:05:04;;;;;;;2.08;1.10;;;;;;;;;;5055916;28;20021;-56
2021/01/01 13:07:31;;;;;;;2.97;1.90;;;;;;;;;;5055774;28;20029;-57
2021/01/01 13:10:01;;;;;;;2.13;1.40;;;;;;;;;;5055854;28;20032;-57
2021/01/01 13:12:28;;;;;;;4.10;1.48;;;;;;;;;;5055670;28;20037;-57
2021/01/01 13:14:54;;;;;;;2.70;1.20;;;;;;;;;;5055880;28;20036;-56
2021/01/01 13:17:21;;;;;;;2.30;1.35;;;;;;;;;;5055640;28;20037;-56
2021/01/01 13:19:48;;;;;;;2.53;1.40;;;;;;;;;;5055719;28;20521;-57
2021/01/01 13:22:15;;;;;;;2.55;1.27;;;;;;;;;;5055682;28;20029;-56
2021/01/01 13:24:41;;;;;;;2.40;1.27;;;;;;;;;;5055668;28;20025;-57
2021/01/01 13:27:08;;;;;;;3.28;1.23;;;;;;;;;;5055555;28;20044;-56
2021/01/01 13:29:35;;;;;;;3.63;1.10;;;;;;;;;;5055208;28;20376;-57
2021/01/01 13:32:02;;;;;;;3.30;1.60;;;;;;;;;;5054502;28;20096;-56
2021/01/01 13:34:29;;;;;;;3.90;1.45;;;;;;;;;;5055300;28;20087;-57
2021/01/01 13:36:56;;;;;;;3.30;1.50;;;;;;;;;;5055416;28;20021;-57
2021/01/01 13:39:22;;;;;;;3.92;1.33;;;;;;;;;;5055293;28;20387;-57
2021/01/01 13:41:51;;;;;;;6.40;1.65;;;;;;;;;;5055218;28;20399;-57
2021/01/01 13:44:18;;;;;;;4.20;1.58;;;;;;;;;;5055208;28;20101;-57
2021/01/01 13:46:45;;;;;;;3.70;1.92;;;;;;;;;;5055277;28;20029;-58
2021/01/01 13:49:12;;;;;;;8.90;3.40;;;;;;;;;;5055153;28;20422;-58
2021/01/01 13:51:39;;;;;;;9.40;2.40;;;;;;;;;;5054936;28;20029;-58
2021/01/01 13:54:06;;;;;;;5.35;1.80;;;;;;;;;;5054936;28;20036;-56
2021/01/01 13:56:33;;;;;;;6.40;1.80;;;;;;;;;;5055045;28;20032;-56
2021/01/01 13:59:00;;;;;;;7.13;2.15;;;;;;;;;;5055015;28;20076;-56
2021/01/01 14:01:27;;;;;;;9.18;2.70;;;;;;;;;;5054952;28;20033;-56
2021/01/01 14:03:54;;;;;;;3.43;1.80;;;;;;;;;;5054929;28;20032;-56
2021/01/01 14:06:33;;;;;;;4.27;2.03;;;;;;;;;;5054752;28;20273;-56
2021/01/01 14:09:01;;;;;;;3.40;1.80;;;;;;;;;;5054638;28;20620;-56
2021/01/01 14:11:28;;;;;;;5.40;2.17;;;;;;;;;;5054874;28;20277;-56
2021/01/01 14:13:55;;;;;;;3.87;2.23;;;;;;;;;;5054710;28;20344;-56
2021/01/01 14:16:22;;;;;;;4.17;2.27;;;;;;;;;;5054631;28;20250;-57
2021/01/01 14:18:48;;;;;;;5.50;2.73;;;;;;;;;;5054511;28;20262;-56
2021/01/01 14:21:15;;;;;;;4.83;2.77;;;;;;;;;;5054634;28;20269;-57
2021/01/01 14:23:42;;;;;;;6.33;2.53;;;;;;;;;;5054428;28;20286;-57
2021/01/01 14:26:09;;;;;;;7.03;3.40;;;;;;;;;;5054454;28;20294;-57
2021/01/01 14:28:38;;;;;;;5.60;2.90;;;;;;;;;;5054222;28;20598;-57
2021/01/01 14:31:05;;;;;;;7.07;3.23;;;;;;;;;;5053474;28;20309;-57
2021/01/01 14:33:32;;;;;;;7.17;4.30;;;;;;;;;;5054317;28;20285;-57
2021/01/01 14:35:59;;;;;;;14.30;6.47;;;;;;;;;;5054580;28;20266;-57
2021/01/01 14:38:25;;;;;;;12.23;7.27;;;;;;;;;;5054158;28;20242;-57
2021/01/01 14:40:52;;;;;;;8.80;4.40;;;;;;;;;;5054147;28;20352;-57
2021/01/01 14:43:19;;;;;;;11.47;4.60;;;;;;;;;;5053250;28;20256;-57
2021/01/01 14:45:46;;;;;;;14.13;6.77;;;;;;;;;;5054103;28;20284;-57
2021/01/01 14:48:12;;;;;;;16.13;7.00;;;;;;;;;;5053897;28;20253;-57
2021/01/01 14:50:39;;;;;;;13.93;6.53;;;;;;;;;;5053933;28;20356;-57
2021/01/01 14:53:06;;;;;;;12.13;5.33;;;;;;;;;;5053810;28;20296;-57
2021/01/01 14:55:33;;;;;;;10.97;4.70;;;;;;;;;;5053884;28;20246;-57
2021/01/01 14:57:59;;;;;;;14.93;4.77;;;;;;;;;;5053720;28;20251;-57
2021/01/01 15:00:26;;;;;;;17.07;4.37;;;;;;;;;;5053902;28;20596;-57
2021/01/01 15:02:53;;;;;;;7.53;3.67;;;;;;;;;;5053800;28;20250;-57
2021/01/01 15:05:20;;;;;;;14.47;4.80;;;;;;;;;;5053684;28;20246;-57
2021/01/01 15:07:46;;;;;;;7.03;4.03;;;;;;;;;;5053558;28;20277;-57
2021/01/01 15:10:13;;;;;;;9.83;4.80;;;;;;;;;;5036103;28;20280;-57
2021/01/01 15:12:40;;;;;;;7.00;4.13;;;;;;;;;;5053453;28;20660;-57
2021/01/01 15:15:07;;;;;;;10.33;4.33;;;;;;;;;;5053506;28;20608;-57
2021/01/01 15:17:34;;;;;;;10.73;4.37;;;;;;;;;;5053401;28;20250;-57
2021/01/01 15:20:00;;;;;;;10.23;3.23;;;;;;;;;;5035493;28;20021;-58
2021/01/01 15:22:27;;;;;;;9.23;4.13;;;;;;;;;;5053387;28;20162;-57
2021/01/01 15:24:54;;;;;;;6.77;4.00;;;;;;;;;;5053366;28;20024;-57
2021/01/01 15:27:21;;;;;;;7.67;4.17;;;;;;;;;;5053245;28;20036;-57
2021/01/01 15:29:48;;;;;;;7.03;4.37;;;;;;;;;;5053125;28;20100;-58
2021/01/01 15:32:14;;;;;;;11.33;3.53;;;;;;;;;;5052273;28;20411;-58
2021/01/01 15:34:41;;;;;;;10.07;2.93;;;;;;;;;;5053189;28;20043;-57
2021/01/01 15:37:08;;;;;;;6.57;3.30;;;;;;;;;;5053066;28;20017;-58
2021/01/01 15:39:35;;;;;;;3.87;2.43;;;;;;;;;;5053141;28;20526;-58
2021/01/01 15:42:02;;;;;;;7.37;2.57;;;;;;;;;;5053054;28;20464;-58
2021/01/01 15:44:29;;;;;;;7.33;2.87;;;;;;;;;;5052923;28;20028;-57
2021/01/01 15:46:56;;;;;;;7.60;3.13;;;;;;;;;;5052891;28;20376;-58
2021/01/01 15:49:23;;;;;;;8.00;3.70;;;;;;;;;;5052923;28;20025;-58
2021/01/01 15:51:50;;;;;;;9.13;4.63;;;;;;;;;;5052686;28;20189;-58
2021/01/01 15:54:20;;;;;;;8.77;3.67;;;;;;;;;;5052641;28;20075;-58
2021/01/01 15:56:50;;;;;;;9.97;3.70;;;;;;;;;;5052791;28;20104;-58